FYWH/WDH METAR and TAF weather

Enter ICAO airport designator
Station Type Date Time Source
FYWH METAR 2022/12/09 18:00 UTC NOAA

FYWH 091800Z 23004KT CAVOK 24/09 Q1020 NOSIG


Station Type Date Time Source
FYWH Decoded METAR 2022/12/09 18:00 UTC NOAA

J. G. Strijdom, Namibia (FYWH) 22-29S 017-28E 1700M
Dec 09, 2022 - 01:00 PM EST / 2022.12.09 1800 UTC
Wind: from the SW (230 degrees) at 5 MPH (4 KT):0
Visibility: greater than 7 mile(s):0
Temperature: 75 F (24 C)
Dew Point: 48 F (9 C)
Relative Humidity: 38%
Pressure (altimeter): 30.12 in. Hg (1020 hPa)
ob: FYWH 091800Z 23004KT CAVOK 24/09 Q1020 NOSIG
cycle: 18

Station Type Date Time Source
FYWH TAF 2022/12/09 18:09 UTC NOAA

TAF FYWH 091600Z 0918/1018 07008KT 9999 FEW040CB
BECMG 0919/0921 15003KT CAVOK

Example: see airport list